Time;durP1;ratioP1;P1;durP2;ratioP2;P2;SDS_P1;SDS_P2;PMS_P1;PMS_P2;Temp;Humidity;BMP_temperature;BMP_pressure;BME280_temperature;BME280_humidity;BME280_pressure;Samples;Min_cycle;Max_cycle;Signal;HPM_P1;HPM_P2
2023/10/22 00:01:14;;;;;;;1.60;1.50;;;18.30;57.50;;;;;;5062875;28;21144;-52
2023/10/22 00:03:40;;;;;;;2.07;1.80;;;18.20;57.40;;;;;;5066990;28;20192;-48
2023/10/22 00:06:06;;;;;;;1.90;1.80;;;18.20;57.60;;;;;;5063551;28;20537;-49
2023/10/22 00:08:31;;;;;;;2.30;1.80;;;18.10;57.70;;;;;;5059739;28;20204;-53
2023/10/22 00:10:57;;;;;;;3.20;1.87;;;18.10;57.90;;;;;;5061547;28;20203;-51
2023/10/22 00:13:23;;;;;;;1.60;1.50;;;18.00;57.90;;;;;;5062417;28;20227;-49
2023/10/22 00:15:48;;;;;;;1.70;1.60;;;18.00;58.10;;;;;;5062410;28;20215;-50
2023/10/22 00:18:14;;;;;;;1.83;1.70;;;18.00;58.10;;;;;;5065251;28;20283;-50
2023/10/22 00:20:41;;;;;;;3.93;2.10;;;18.00;58.10;;;;;;5066349;28;20180;-54
2023/10/22 00:23:07;;;;;;;1.77;1.67;;;18.00;58.10;;;;;;5064745;28;20465;-50
2023/10/22 00:25:35;;;;;;;3.00;1.70;;;18.00;58.10;;;;;;5067001;28;20438;-50
2023/10/22 00:28:01;;;;;;;2.13;2.03;;;17.90;58.20;;;;;;5064326;28;20230;-54
2023/10/22 00:30:27;;;;;;;2.30;2.10;;;17.90;58.40;;;;;;5061469;28;20449;-53
2023/10/22 00:32:52;;;;;;;5.47;2.50;;;18.00;58.20;;;;;;5063973;28;20283;-51
2023/10/22 00:35:18;;;;;;;2.80;2.00;;;18.00;57.90;;;;;;5068057;28;20218;-50
2023/10/22 00:37:43;;;;;;;2.00;1.90;;;18.00;57.80;;;;;;5065944;28;20196;-50
2023/10/22 00:40:09;;;;;;;2.70;2.43;;;18.00;57.70;;;;;;5065651;28;20711;-48
2023/10/22 00:42:35;;;;;;;2.00;1.90;;;18.00;57.60;;;;;;5069229;28;20237;-51
2023/10/22 00:45:01;;;;;;;2.47;2.27;;;18.00;57.60;;;;;;5069027;28;20188;-51
2023/10/22 00:47:26;;;;;;;1.90;1.80;;;17.90;57.60;;;;;;5065671;28;20188;-48
2023/10/22 00:49:52;;;;;;;2.80;2.30;;;17.70;58.00;;;;;;5066746;28;20214;-52
2023/10/22 00:52:18;;;;;;;2.33;1.60;;;17.50;58.70;;;;;;5067442;28;20176;-53
2023/10/22 00:54:46;;;;;;;2.03;1.47;;;17.30;59.10;;;;;;5064544;28;20285;-50
2023/10/22 00:57:12;;;;;;;1.90;1.80;;;17.30;59.20;;;;;;5064341;28;20521;-49
2023/10/22 00:59:37;;;;;;;3.27;1.43;;;17.30;59.00;;;;;;5065301;28;20964;-49
2023/10/22 01:02:03;;;;;;;3.57;1.77;;;17.10;59.30;;;;;;5062315;28;20473;-49
2023/10/22 01:04:30;;;;;;;3.13;1.60;;;17.20;59.40;;;;;;5063815;28;20709;-49
2023/10/22 01:06:55;;;;;;;2.00;1.53;;;17.10;59.70;;;;;;5062285;28;20200;-48
2023/10/22 01:09:21;;;;;;;2.13;1.63;;;17.10;59.60;;;;;;5064238;28;20466;-49
2023/10/22 01:12:01;;;;;;;1.50;1.40;;;17.10;59.50;;;;;;5066260;28;20191;-52
2023/10/22 01:14:27;;;;;;;1.70;1.60;;;16.90;59.80;;;;;;5065429;28;20478;-52
2023/10/22 01:16:52;;;;;;;1.90;1.80;;;16.70;60.10;;;;;;5067467;28;20520;-52
2023/10/22 01:19:18;;;;;;;3.30;1.70;;;16.80;60.40;;;;;;5066674;28;20202;-48
2023/10/22 01:21:43;;;;;;;1.50;1.40;;;16.70;61.20;;;;;;5068597;28;20781;-48
2023/10/22 01:24:09;;;;;;;3.13;1.97;;;16.50;61.10;;;;;;5067061;28;20188;-52
2023/10/22 01:26:42;;;;;;;4.33;1.60;;;16.60;61.10;;;;;;5064989;28;20555;-53
2023/10/22 01:29:07;;;;;;;1.70;1.20;;;16.70;60.70;;;;;;5055779;28;20210;-51
2023/10/22 01:31:33;;;;;;;1.43;1.33;;;16.70;60.50;;;;;;5064676;28;20450;-49
2023/10/22 01:33:58;;;;;;;1.50;1.40;;;16.70;60.40;;;;;;5058807;28;20195;-52
2023/10/22 01:36:24;;;;;;;2.30;1.27;;;16.80;60.00;;;;;;5055916;28;20180;-54
2023/10/22 01:38:50;;;;;;;1.47;1.37;;;16.70;60.30;;;;;;5058711;28;20207;-48
2023/10/22 01:41:15;;;;;;;2.50;1.67;;;16.70;60.20;;;;;;5061046;28;20271;-48
2023/10/22 01:43:41;;;;;;;1.93;1.40;;;16.70;60.50;;;;;;5060327;28;20242;-49
2023/10/22 01:46:06;;;;;;;2.83;1.77;;;16.60;60.50;;;;;;5064385;28;20229;-48
2023/10/22 01:48:32;;;;;;;1.90;1.30;;;16.50;61.00;;;;;;5060721;28;20588;-48
2023/10/22 01:50:57;;;;;;;4.60;1.40;;;16.60;60.80;;;;;;5061166;28;20184;-49
2023/10/22 01:53:23;;;;;;;3.60;1.40;;;16.70;60.40;;;;;;5060937;28;20211;-49
2023/10/22 01:55:48;;;;;;;1.77;1.53;;;16.70;60.50;;;;;;5065201;28;20211;-53
2023/10/22 01:58:14;;;;;;;1.83;1.50;;;16.70;60.70;;;;;;5062606;28;20338;-49
2023/10/22 02:00:40;;;;;;;2.13;1.93;;;16.70;60.30;;;;;;5059038;28;20593;-49
2023/10/22 02:03:05;;;;;;;2.23;1.43;;;16.60;60.30;;;;;;5061920;28;20241;-52
2023/10/22 02:05:34;;;;;;;1.63;1.20;;;16.50;60.60;;;;;;5060400;28;20184;-51
2023/10/22 02:08:01;;;;;;;1.50;1.40;;;16.40;61.30;;;;;;5064120;28;20616;-48
2023/10/22 02:10:26;;;;;;;2.53;1.70;;;16.50;60.90;;;;;;5062673;28;20514;-52
2023/10/22 02:12:52;;;;;;;1.80;1.70;;;16.70;60.50;;;;;;5062018;28;20548;-49
2023/10/22 02:15:17;;;;;;;2.30;1.40;;;16.80;59.90;;;;;;5059758;28;20742;-51
2023/10/22 02:17:43;;;;;;;2.30;1.60;;;16.70;59.90;;;;;;5064643;28;20532;-52
2023/10/22 02:20:09;;;;;;;1.97;1.40;;;16.80;59.80;;;;;;5063041;28;20704;-52
2023/10/22 02:22:38;;;;;;;1.80;1.70;;;16.90;59.40;;;;;;5061444;28;20267;-53
2023/10/22 02:25:05;;;;;;;3.60;1.40;;;16.90;59.10;;;;;;5066579;28;20438;-50
2023/10/22 02:27:31;;;;;;;1.73;1.30;;;16.90;58.90;;;;;;5065420;28;20453;-48
2023/10/22 02:29:57;;;;;;;1.73;1.63;;;16.90;58.90;;;;;;5066837;28;20919;-51
2023/10/22 02:32:23;;;;;;;1.83;1.67;;;16.80;58.80;;;;;;5065403;28;20452;-51
2023/10/22 02:34:48;;;;;;;2.30;1.73;;;16.70;59.20;;;;;;5062508;28;20477;-48
2023/10/22 02:37:14;;;;;;;2.40;1.70;;;16.60;60.10;;;;;;5067170;28;20188;-52
2023/10/22 02:39:40;;;;;;;2.00;1.50;;;16.70;59.40;;;;;;5066019;28;20196;-50
2023/10/22 02:42:05;;;;;;;4.60;1.87;;;16.60;59.40;;;;;;5065889;28;20438;-52
2023/10/22 02:44:31;;;;;;;2.20;1.97;;;16.60;59.40;;;;;;5062820;28;20191;-52
2023/10/22 02:46:58;;;;;;;2.10;1.50;;;16.50;59.30;;;;;;5064825;28;20224;-48
2023/10/22 02:49:24;;;;;;;2.00;1.70;;;16.50;59.60;;;;;;5064996;28;20287;-56
2023/10/22 02:51:50;;;;;;;4.23;1.60;;;16.40;59.50;;;;;;5062866;28;21029;-48
2023/10/22 02:54:16;;;;;;;2.30;1.50;;;16.50;59.50;;;;;;5066140;28;20581;-54
2023/10/22 02:56:42;;;;;;;1.73;1.33;;;16.40;59.50;;;;;;5063184;28;20445;-52
2023/10/22 02:59:08;;;;;;;2.33;1.40;;;16.50;59.50;;;;;;5066774;28;20311;-52
2023/10/22 03:01:33;;;;;;;1.97;1.80;;;16.50;59.40;;;;;;5062202;28;21575;-51
2023/10/22 03:03:59;;;;;;;1.43;1.33;;;16.50;59.20;;;;;;5067360;28;20528;-49
2023/10/22 03:06:25;;;;;;;2.50;1.40;;;16.50;59.00;;;;;;5066381;28;20187;-54
2023/10/22 03:08:50;;;;;;;1.53;1.43;;;16.50;58.80;;;;;;5060381;28;20204;-54
2023/10/22 03:11:19;;;;;;;1.83;1.63;;;16.50;58.90;;;;;;5061421;28;20184;-53
2023/10/22 03:13:46;;;;;;;1.77;1.63;;;16.50;58.90;;;;;;5064352;28;20223;-49
2023/10/22 03:16:15;;;;;;;1.60;1.50;;;16.50;58.70;;;;;;5057922;28;21179;-53
2023/10/22 03:18:42;;;;;;;1.93;1.37;;;16.50;58.50;;;;;;5059146;28;20592;-50
2023/10/22 03:21:19;;;;;;;3.97;1.70;;;16.50;58.40;;;;;;5061180;28;20993;-53
2023/10/22 03:23:45;;;;;;;3.57;1.50;;;16.50;58.30;;;;;;5057722;28;22377;-50
2023/10/22 03:26:14;;;;;;;1.83;1.70;;;16.50;58.30;;;;;;5061069;28;20434;-50
2023/10/22 03:28:40;;;;;;;2.10;1.47;;;16.50;58.30;;;;;;5067411;28;20469;-52
2023/10/22 03:31:06;;;;;;;2.03;1.87;;;16.40;58.20;;;;;;5061925;28;20457;-51
2023/10/22 03:33:32;;;;;;;1.50;1.40;;;16.30;58.60;;;;;;5061882;28;20803;-55
2023/10/22 03:35:59;;;;;;;2.37;1.50;;;16.30;58.70;;;;;;5059114;28;21062;-55
2023/10/22 03:38:25;;;;;;;3.47;2.27;;;16.10;58.90;;;;;;5067522;28;20535;-56
2023/10/22 03:41:02;;;;;;;3.63;1.80;;;16.10;59.40;;;;;;5062815;28;20871;-54
2023/10/22 03:43:28;;;;;;;4.53;2.27;;;16.00;59.40;;;;;;5059461;28;20841;-54
2023/10/22 03:46:01;;;;;;;2.73;2.00;;;15.70;60.20;;;;;;5065167;28;21149;-52
2023/10/22 03:48:27;;;;;;;1.87;1.77;;;15.50;60.80;;;;;;5068192;28;21165;-54
2023/10/22 03:50:53;;;;;;;2.87;1.60;;;15.50;61.20;;;;;;5067517;28;20464;-53
2023/10/22 03:53:19;;;;;;;1.63;1.53;;;15.60;60.70;;;;;;5064424;28;20476;-51
2023/10/22 03:55:45;;;;;;;2.27;1.70;;;15.70;60.30;;;;;;5064777;28;20489;-51
2023/10/22 03:58:11;;;;;;;1.93;1.73;;;15.60;60.70;;;;;;5064958;28;20455;-51
2023/10/22 04:00:36;;;;;;;1.70;1.60;;;15.50;60.80;;;;;;5060429;28;20184;-54
2023/10/22 04:03:02;;;;;;;3.23;1.63;;;15.50;60.40;;;;;;5061833;28;20215;-50
2023/10/22 04:05:28;;;;;;;1.60;1.50;;;15.60;61.10;;;;;;5058674;28;20265;-50
2023/10/22 04:07:53;;;;;;;3.50;1.60;;;15.60;60.30;;;;;;5066999;28;20192;-48
2023/10/22 04:10:19;;;;;;;3.03;1.43;;;15.60;60.10;;;;;;5062004;28;20225;-53
2023/10/22 04:12:45;;;;;;;2.23;1.30;;;15.60;60.40;;;;;;5053920;28;20256;-51
2023/10/22 04:15:11;;;;;;;1.90;1.40;;;15.50;60.60;;;;;;5061065;28;20522;-51
2023/10/22 04:17:37;;;;;;;3.27;1.70;;;15.30;61.30;;;;;;5055019;28;20781;-52
2023/10/22 04:20:03;;;;;;;1.57;1.47;;;15.10;63.40;;;;;;5059049;28;20466;-50
2023/10/22 04:22:29;;;;;;;2.60;1.60;;;15.20;62.70;;;;;;5062882;28;20558;-48
2023/10/22 04:24:54;;;;;;;2.43;1.43;;;15.30;61.90;;;;;;5067354;28;20449;-51
2023/10/22 04:27:20;;;;;;;1.50;1.40;;;15.50;61.10;;;;;;5068999;28;20205;-48
2023/10/22 04:29:46;;;;;;;1.73;1.63;;;15.60;60.40;;;;;;5062675;28;20208;-49
2023/10/22 04:32:13;;;;;;;1.50;1.40;;;15.70;60.10;;;;;;5065908;28;20187;-50
2023/10/22 04:34:39;;;;;;;2.17;1.60;;;15.80;59.90;;;;;;5065040;28;20462;-51
2023/10/22 04:37:06;;;;;;;1.40;1.20;;;15.70;59.80;;;;;;5069111;28;20792;-53
2023/10/22 04:39:32;;;;;;;2.10;1.90;;;15.60;59.80;;;;;;5069037;28;20936;-48
2023/10/22 04:41:57;;;;;;;5.40;2.03;;;15.60;60.10;;;;;;5069213;28;20429;-49
2023/10/22 04:44:23;;;;;;;4.40;1.73;;;15.60;60.00;;;;;;5068013;28;20422;-49
2023/10/22 04:46:51;;;;;;;1.60;1.50;;;15.70;59.90;;;;;;5067619;28;20210;-48
2023/10/22 04:49:16;;;;;;;2.03;1.60;;;15.60;60.20;;;;;;5065561;28;20216;-48
2023/10/22 04:51:42;;;;;;;1.97;1.40;;;15.60;60.20;;;;;;5063702;28;20449;-48
2023/10/22 04:54:07;;;;;;;1.50;1.40;;;15.60;60.10;;;;;;5066622;28;20271;-50
2023/10/22 04:56:34;;;;;;;1.83;1.27;;;15.40;60.70;;;;;;5066888;28;20249;-49
2023/10/22 04:59:00;;;;;;;4.47;1.97;;;15.40;60.80;;;;;;5064743;28;20683;-51
2023/10/22 05:01:26;;;;;;;5.00;2.27;;;15.50;60.30;;;;;;5065472;28;20462;-54
2023/10/22 05:03:51;;;;;;;1.60;1.50;;;15.60;59.80;;;;;;5061015;28;20192;-50
2023/10/22 05:06:17;;;;;;;1.93;1.83;;;15.70;59.60;;;;;;5064456;28;20229;-51
2023/10/22 05:08:42;;;;;;;2.33;1.90;;;15.70;59.50;;;;;;5067396;28;20212;-48
2023/10/22 05:11:15;;;;;;;3.13;2.17;;;15.70;59.30;;;;;;5063263;28;20267;-49
2023/10/22 05:13:43;;;;;;;2.00;1.90;;;15.70;59.30;;;;;;5066856;28;20206;-50
2023/10/22 05:16:10;;;;;;;1.87;1.50;;;15.70;59.30;;;;;;5062733;28;20539;-48
2023/10/22 05:18:36;;;;;;;2.50;1.70;;;15.70;59.30;;;;;;5067274;28;20454;-52
2023/10/22 05:21:04;;;;;;;1.60;1.40;;;15.70;59.40;;;;;;5067047;28;20426;-54
2023/10/22 05:23:30;;;;;;;2.90;2.30;;;15.80;59.50;;;;;;5067375;28;20434;-48
2023/10/22 05:26:13;;;;;;;2.67;2.10;;;15.80;59.30;;;;;;5064648;28;21145;-48
2023/10/22 05:28:39;;;;;;;3.47;1.53;;;15.80;59.40;;;;;;5058593;28;20536;-53
2023/10/22 05:31:15;;;;;;;2.93;1.30;;;15.80;59.60;;;;;;5060276;28;20457;-51
2023/10/22 05:33:42;;;;;;;3.47;1.50;;;15.70;59.10;;;;;;5062038;28;20933;-52
2023/10/22 05:36:18;;;;;;;3.13;1.43;;;15.70;59.90;;;;;;5061268;28;20493;-51
2023/10/22 05:38:45;;;;;;;2.40;1.60;;;15.80;58.80;;;;;;5065497;28;20471;-49
2023/10/22 05:41:25;;;;;;;3.63;1.43;;;15.60;59.30;;;;;;5065257;28;20445;-48
2023/10/22 05:43:52;;;;;;;2.43;1.40;;;15.60;59.10;;;;;;5057214;28;20824;-48
2023/10/22 05:46:18;;;;;;;5.17;1.77;;;15.60;59.20;;;;;;5059545;28;20445;-53
2023/10/22 05:48:44;;;;;;;1.80;1.70;;;15.80;59.20;;;;;;5057359;28;20817;-53
2023/10/22 05:51:09;;;;;;;1.60;1.43;;;16.10;59.40;;;;;;5060972;28;20334;-50
2023/10/22 05:53:35;;;;;;;3.93;1.93;;;16.00;58.40;;;;;;5064977;28;20184;-52
2023/10/22 05:56:01;;;;;;;8.87;2.03;;;15.90;58.20;;;;;;5064544;28;20207;-48
2023/10/22 05:58:26;;;;;;;3.90;2.07;;;15.90;58.70;;;;;;5065226;28;20824;-53
2023/10/22 06:00:53;;;;;;;1.70;1.33;;;16.00;58.40;;;;;;5062105;28;20234;-54
2023/10/22 06:03:19;;;;;;;3.00;2.23;;;16.00;58.10;;;;;;5065191;28;20191;-48
2023/10/22 06:05:45;;;;;;;2.53;1.63;;;16.10;58.50;;;;;;5065477;28;20430;-51
2023/10/22 06:08:10;;;;;;;2.03;1.40;;;16.20;58.00;;;;;;5066606;28;20446;-49
2023/10/22 06:10:43;;;;;;;2.23;1.57;;;16.20;57.90;;;;;;5064091;28;20427;-49
2023/10/22 06:13:09;;;;;;;4.10;1.47;;;16.30;57.80;;;;;;5061895;28;20188;-51
2023/10/22 06:15:36;;;;;;;1.73;1.50;;;16.50;57.70;;;;;;5059434;28;20466;-50
2023/10/22 06:18:02;;;;;;;1.93;1.60;;;16.60;57.20;;;;;;5064898;28;20302;-56
2023/10/22 06:20:32;;;;;;;1.67;1.40;;;16.70;57.10;;;;;;5058963;28;20480;-53
2023/10/22 06:22:58;;;;;;;2.93;1.50;;;16.60;56.90;;;;;;5063245;28;20469;-51
2023/10/22 06:25:23;;;;;;;1.87;1.30;;;16.60;57.20;;;;;;5063775;28;20442;-51
2023/10/22 06:27:50;;;;;;;1.77;1.33;;;16.80;57.00;;;;;;5065231;28;20191;-53
2023/10/22 06:30:21;;;;;;;3.50;1.50;;;16.90;56.70;;;;;;5066420;28;20647;-52
2023/10/22 06:32:49;;;;;;;2.03;1.23;;;17.10;56.00;;;;;;5067111;28;20442;-49
2023/10/22 06:35:14;;;;;;;2.20;1.10;;;17.20;55.60;;;;;;5060936;28;20473;-50
2023/10/22 06:37:40;;;;;;;2.23;1.20;;;17.50;55.50;;;;;;5071085;28;20970;-50
2023/10/22 06:40:07;;;;;;;4.30;1.90;;;17.70;55.20;;;;;;5070688;28;20728;-55
2023/10/22 06:42:33;;;;;;;3.13;1.40;;;17.80;54.20;;;;;;5066485;28;20196;-51
2023/10/22 06:44:59;;;;;;;1.13;1.03;;;18.10;53.80;;;;;;5070733;28;20433;-51
2023/10/22 06:47:25;;;;;;;1.70;1.37;;;18.30;53.10;;;;;;5071323;28;20428;-52
2023/10/22 06:49:51;;;;;;;2.33;1.30;;;18.40;52.20;;;;;;5065705;28;20722;-49
2023/10/22 06:52:17;;;;;;;1.40;1.30;;;18.60;52.10;;;;;;5071627;28;20434;-54
2023/10/22 06:54:42;;;;;;;1.53;1.27;;;18.80;51.60;;;;;;5071147;28;20207;-52
2023/10/22 06:57:08;;;;;;;1.80;1.13;;;19.00;51.20;;;;;;5071134;28;20188;-51
2023/10/22 06:59:33;;;;;;;4.33;2.60;;;19.10;50.80;;;;;;5069422;28;20219;-52
2023/10/22 07:01:59;;;;;;;3.43;1.90;;;19.30;51.00;;;;;;5070216;28;20618;-52
2023/10/22 07:04:24;;;;;;;2.20;1.23;;;19.50;50.50;;;;;;5071258;28;20900;-52
2023/10/22 07:06:50;;;;;;;1.60;1.23;;;19.70;50.00;;;;;;5070988;28;20187;-56
2023/10/22 07:09:15;;;;;;;1.67;1.30;;;19.80;49.40;;;;;;5071286;28;20683;-49
2023/10/22 07:11:43;;;;;;;2.40;1.47;;;19.90;49.30;;;;;;5069620;28;20659;-50
2023/10/22 07:14:09;;;;;;;4.00;1.50;;;20.00;49.10;;;;;;5070907;28;20270;-55
2023/10/22 07:16:34;;;;;;;3.37;1.37;;;20.00;49.40;;;;;;5068931;28;20581;-50
2023/10/22 07:19:00;;;;;;;5.20;1.63;;;20.10;49.10;;;;;;5069735;28;21273;-49
2023/10/22 07:21:26;;;;;;;1.50;1.20;;;20.10;49.10;;;;;;5069500;28;20613;-56
2023/10/22 07:23:51;;;;;;;2.83;1.23;;;20.20;48.70;;;;;;5064860;28;20673;-54
2023/10/22 07:26:17;;;;;;;1.33;0.83;;;20.10;48.20;;;;;;5068758;28;21909;-55
2023/10/22 07:28:44;;;;;;;1.77;1.10;;;20.10;48.20;;;;;;5067983;28;20208;-54
2023/10/22 07:31:11;;;;;;;2.80;1.03;;;20.10;48.30;;;;;;5070953;28;20188;-55
2023/10/22 07:33:37;;;;;;;3.40;1.37;;;19.90;48.00;;;;;;5071229;28;20414;-55
2023/10/22 07:36:07;;;;;;;2.30;0.97;;;19.70;48.60;;;;;;5074583;28;20477;-49
2023/10/22 07:38:33;;;;;;;1.73;1.27;;;19.60;48.70;;;;;;5070838;28;20200;-50
2023/10/22 07:40:59;;;;;;;2.53;1.33;;;19.30;48.80;;;;;;5068048;28;20458;-51
2023/10/22 07:43:28;;;;;;;2.10;1.00;;;19.10;49.60;;;;;;5070736;28;21364;-51
2023/10/22 07:45:57;;;;;;;4.10;1.20;;;18.70;50.10;;;;;;5065246;28;20441;-50
2023/10/22 07:48:22;;;;;;;2.37;1.03;;;18.60;50.40;;;;;;5070201;28;20875;-48
2023/10/22 07:50:48;;;;;;;2.10;1.37;;;18.60;50.60;;;;;;5066568;28;20483;-48
2023/10/22 07:53:14;;;;;;;2.60;1.17;;;18.60;50.80;;;;;;5068258;28;20180;-49
2023/10/22 07:55:40;;;;;;;4.17;1.03;;;18.40;50.80;;;;;;5068570;28;20265;-48
2023/10/22 07:58:05;;;;;;;1.77;1.30;;;18.00;51.30;;;;;;5067457;28;20494;-53
2023/10/22 08:00:31;;;;;;;3.70;1.40;;;17.90;52.00;;;;;;5069160;28;20730;-50
2023/10/22 08:02:57;;;;;;;2.87;1.87;;;17.90;52.30;;;;;;5071418;28;20184;-50
2023/10/22 08:05:23;;;;;;;2.50;1.30;;;17.90;52.10;;;;;;5068119;28;20438;-48
2023/10/22 08:07:48;;;;;;;5.83;1.40;;;18.00;52.30;;;;;;5067718;28;20206;-48
2023/10/22 08:10:15;;;;;;;4.53;1.33;;;18.10;52.00;;;;;;5070446;28;20191;-48
2023/10/22 08:12:40;;;;;;;4.13;1.20;;;18.00;51.60;;;;;;5070374;28;20192;-52
2023/10/22 08:15:07;;;;;;;2.77;0.97;;;18.00;51.80;;;;;;5069012;28;20477;-51
2023/10/22 08:17:32;;;;;;;2.33;1.17;;;18.10;51.80;;;;;;5069196;28;20214;-49
2023/10/22 08:19:58;;;;;;;2.93;1.13;;;18.00;51.40;;;;;;5068239;28;20806;-50
2023/10/22 08:22:23;;;;;;;1.77;1.27;;;18.10;51.50;;;;;;5067929;28;20647;-49
2023/10/22 08:24:49;;;;;;;4.17;1.07;;;18.10;51.60;;;;;;5069239;28;20864;-48
2023/10/22 08:27:15;;;;;;;1.37;1.10;;;18.30;51.50;;;;;;5067970;28;20184;-48
2023/10/22 08:29:41;;;;;;;3.43;1.30;;;18.40;51.50;;;;;;5068823;28;20299;-48
2023/10/22 08:32:06;;;;;;;3.37;1.40;;;18.50;51.50;;;;;;5068732;28;20545;-48
2023/10/22 08:34:32;;;;;;;5.30;1.40;;;18.70;50.80;;;;;;5066865;28;20202;-49
2023/10/22 08:36:58;;;;;;;2.03;1.00;;;18.70;50.60;;;;;;5069450;28;20207;-48
2023/10/22 08:39:27;;;;;;;3.80;1.20;;;18.80;50.70;;;;;;5069480;28;20985;-50
2023/10/22 08:42:09;;;;;;;3.97;1.40;;;18.80;50.50;;;;;;5071390;28;20183;-48
2023/10/22 08:44:43;;;;;;;2.17;1.30;;;18.90;50.40;;;;;;5064410;28;20448;-49
2023/10/22 08:47:08;;;;;;;2.63;1.30;;;19.00;50.10;;;;;;5064840;28;20466;-48
2023/10/22 08:49:36;;;;;;;2.80;1.20;;;19.00;49.80;;;;;;5067514;28;20466;-52
2023/10/22 08:52:02;;;;;;;3.40;1.30;;;19.20;49.90;;;;;;5069817;28;20187;-53
2023/10/22 08:54:28;;;;;;;4.47;1.17;;;19.20;49.90;;;;;;5068627;28;20442;-53
2023/10/22 08:56:54;;;;;;;4.40;1.17;;;19.40;50.60;;;;;;5068173;28;20192;-50
2023/10/22 08:59:19;;;;;;;4.73;1.57;;;19.50;49.50;;;;;;5066500;28;20231;-49
2023/10/22 09:01:46;;;;;;;1.73;1.17;;;19.70;48.90;;;;;;5067586;28;20537;-49
2023/10/22 09:04:12;;;;;;;3.43;1.20;;;19.70;48.70;;;;;;5068703;28;20639;-53
2023/10/22 09:06:38;;;;;;;2.77;1.20;;;19.60;48.00;;;;;;5068672;28;20456;-49
2023/10/22 09:09:03;;;;;;;2.90;1.13;;;19.30;48.40;;;;;;5069167;28;20199;-48
2023/10/22 09:11:29;;;;;;;1.60;1.30;;;19.30;48.30;;;;;;5068599;28;20598;-49
2023/10/22 09:13:54;;;;;;;2.13;1.17;;;19.30;48.50;;;;;;5063808;28;20372;-52
2023/10/22 09:16:31;;;;;;;3.50;1.23;;;19.30;48.30;;;;;;5065921;28;20207;-51
2023/10/22 09:18:57;;;;;;;3.63;1.33;;;19.40;48.30;;;;;;5068844;28;20195;-51
2023/10/22 09:21:24;;;;;;;4.10;1.10;;;19.20;48.50;;;;;;5065662;28;20462;-48
2023/10/22 09:24:05;;;;;;;2.00;1.13;;;19.30;48.90;;;;;;5065871;28;21353;-49
2023/10/22 09:27:00;;;;;;;4.50;2.60;;;19.60;48.20;;;;;;5068216;28;20485;-51
2023/10/22 09:29:26;;;;;;;3.20;1.47;;;19.70;47.80;;;;;;5057386;28;20470;-51
2023/10/22 09:31:53;;;;;;;1.67;1.20;;;19.90;47.90;;;;;;5068577;28;20416;-51
2023/10/22 09:34:31;;;;;;;2.17;1.30;;;19.90;47.80;;;;;;5066257;28;20430;-50
2023/10/22 09:36:58;;;;;;;2.90;1.30;;;20.20;47.30;;;;;;5066300;28;20442;-52
2023/10/22 09:39:34;;;;;;;2.13;1.27;;;20.30;46.20;;;;;;5065618;28;20458;-50
2023/10/22 09:42:00;;;;;;;2.73;0.97;;;20.30;46.70;;;;;;5064972;28;20440;-49
2023/10/22 09:44:27;;;;;;;3.40;1.20;;;20.20;46.30;;;;;;5066307;28;20434;-48
2023/10/22 09:46:54;;;;;;;4.53;1.50;;;20.20;46.50;;;;;;5060301;28;20515;-51
2023/10/22 09:49:22;;;;;;;3.80;1.47;;;20.30;46.10;;;;;;5064660;28;20539;-48
2023/10/22 09:51:50;;;;;;;6.80;1.40;;;20.50;45.40;;;;;;5057146;28;20492;-53
2023/10/22 09:54:19;;;;;;;4.00;1.43;;;20.60;45.40;;;;;;5051779;28;20968;-55
2023/10/22 09:56:51;;;;;;;3.50;0.90;;;20.70;44.80;;;;;;5057018;28;20446;-56
2023/10/22 09:59:18;;;;;;;3.43;1.50;;;20.60;45.20;;;;;;5053828;28;20458;-48
2023/10/22 10:01:43;;;;;;;3.90;1.47;;;20.70;45.20;;;;;;5058739;28;20533;-54
2023/10/22 10:04:11;;;;;;;5.93;1.57;;;20.70;45.20;;;;;;5068065;28;20553;-56
2023/10/22 10:06:37;;;;;;;3.80;1.13;;;20.90;45.10;;;;;;5061774;28;20184;-54
2023/10/22 10:09:03;;;;;;;2.67;1.70;;;21.10;44.50;;;;;;5064073;28;20513;-49
2023/10/22 10:11:33;;;;;;;1.73;1.33;;;21.20;44.00;;;;;;5067965;28;21027;-50
2023/10/22 10:14:10;;;;;;;3.33;1.33;;;21.30;43.80;;;;;;5072214;28;20384;-48
2023/10/22 10:16:42;;;;;;;4.43;0.90;;;21.40;43.90;;;;;;5068692;28;20493;-54
2023/10/22 10:19:08;;;;;;;3.50;1.23;;;21.50;43.60;;;;;;5068633;28;20504;-53
2023/10/22 10:21:34;;;;;;;3.53;1.13;;;21.40;43.50;;;;;;5069728;28;20462;-51
2023/10/22 10:24:15;;;;;;;3.00;1.53;;;21.40;43.60;;;;;;5070772;28;20458;-53
2023/10/22 10:26:41;;;;;;;2.17;1.20;;;21.70;43.40;;;;;;5066469;28;20194;-55
2023/10/22 10:29:06;;;;;;;3.13;1.00;;;21.80;43.30;;;;;;5070049;28;20531;-49
2023/10/22 10:31:32;;;;;;;1.77;0.97;;;21.80;42.90;;;;;;5071047;28;20438;-55
2023/10/22 10:34:04;;;;;;;3.17;1.27;;;21.80;42.60;;;;;;5069149;28;20184;-53
2023/10/22 10:36:31;;;;;;;2.93;1.37;;;22.00;42.70;;;;;;5066191;28;20473;-51
2023/10/22 10:39:34;;;;;;;2.57;1.20;;;22.00;42.30;;;;;;5058004;28;20457;-56
2023/10/22 10:42:00;;;;;;;3.43;1.10;;;21.70;42.40;;;;;;5062678;28;20570;-54
2023/10/22 10:44:28;;;;;;;2.00;1.10;;;21.60;42.90;;;;;;5069962;28;20999;-52
2023/10/22 10:46:54;;;;;;;2.20;1.20;;;21.70;42.80;;;;;;5069215;28;20180;-53
2023/10/22 10:50:02;;;;;;;2.90;1.10;;;21.80;43.10;;;;;;5071644;28;20878;-56
2023/10/22 10:52:38;;;;;;;1.80;1.13;;;22.00;42.60;;;;;;5068239;28;20212;-53
2023/10/22 10:55:10;;;;;;;2.27;1.20;;;22.00;41.80;;;;;;5070474;28;20465;-55
2023/10/22 10:57:41;;;;;;;1.90;1.00;;;22.00;42.10;;;;;;5067946;28;20446;-56
2023/10/22 11:00:19;;;;;;;3.40;1.50;;;21.80;42.40;;;;;;5069602;28;20809;-53
2023/10/22 11:02:56;;;;;;;3.00;1.43;;;21.60;42.20;;;;;;5069551;28;20437;-55
2023/10/22 11:05:39;;;;;;;3.00;1.17;;;21.70;43.10;;;;;;5069724;28;20991;-52
2023/10/22 11:08:11;;;;;;;3.17;1.10;;;21.70;42.50;;;;;;5070841;28;20977;-53
2023/10/22 11:10:36;;;;;;;3.90;1.83;;;21.40;42.50;;;;;;5067563;28;20437;-48
2023/10/22 11:13:04;;;;;;;2.90;1.23;;;21.40;43.00;;;;;;5069438;28;20481;-51
2023/10/22 11:15:36;;;;;;;4.80;1.50;;;21.30;42.90;;;;;;5067676;28;21000;-50
2023/10/22 11:18:06;;;;;;;3.97;1.43;;;21.50;43.10;;;;;;5068601;28;20434;-53
2023/10/22 11:20:32;;;;;;;3.00;1.20;;;21.60;42.50;;;;;;5067223;28;20956;-48
2023/10/22 11:22:58;;;;;;;1.60;1.10;;;21.70;42.50;;;;;;5055742;28;20536;-52
2023/10/22 11:25:26;;;;;;;4.90;1.67;;;21.60;41.60;;;;;;5060243;28;20442;-49
2023/10/22 11:27:51;;;;;;;5.53;1.67;;;21.60;42.40;;;;;;5070700;28;21021;-48
2023/10/22 11:30:54;;;;;;;4.27;1.57;;;21.80;42.30;;;;;;5069680;28;20520;-50
2023/10/22 11:33:28;;;;;;;3.77;1.30;;;22.10;42.40;;;;;;5045503;28;20196;-49
2023/10/22 11:35:55;;;;;;;3.30;1.57;;;22.10;42.20;;;;;;5054801;28;20487;-55
2023/10/22 11:38:21;;;;;;;4.03;1.00;;;22.20;42.60;;;;;;5065171;28;20458;-50
2023/10/22 11:40:55;;;;;;;2.00;1.27;;;22.40;41.80;;;;;;5057000;28;20450;-52
2023/10/22 11:43:23;;;;;;;6.63;1.40;;;22.50;41.10;;;;;;5049289;28;20453;-50
2023/10/22 11:46:07;;;;;;;2.20;0.80;;;22.60;41.40;;;;;;5055508;28;20952;-49
2023/10/22 11:48:35;;;;;;;2.43;1.10;;;22.50;40.60;;;;;;5063902;28;20496;-50
2023/10/22 11:51:03;;;;;;;2.27;1.10;;;22.40;40.80;;;;;;5062078;28;20456;-49
2023/10/22 11:53:42;;;;;;;3.30;1.00;;;22.40;40.90;;;;;;5068290;28;20438;-50
2023/10/22 11:56:08;;;;;;;6.27;1.73;;;22.40;41.00;;;;;;5066819;28;20477;-51
2023/10/22 11:58:34;;;;;;;3.17;1.50;;;22.40;40.80;;;;;;5058977;28;20461;-52
2023/10/22 12:00:59;;;;;;;3.90;1.30;;;22.40;41.10;;;;;;5064430;28;20434;-50
2023/10/22 12:03:25;;;;;;;4.10;1.17;;;22.00;40.10;;;;;;5051184;28;20943;-50
2023/10/22 12:05:50;;;;;;;4.23;1.30;;;21.90;40.10;;;;;;5047935;28;20223;-52
2023/10/22 12:08:16;;;;;;;3.30;1.50;;;21.70;40.20;;;;;;5058229;28;20218;-48
2023/10/22 12:10:41;;;;;;;5.43;1.20;;;21.60;40.60;;;;;;5057891;28;20690;-49
2023/10/22 12:13:07;;;;;;;2.13;1.43;;;21.70;41.40;;;;;;5066284;28;20192;-49
2023/10/22 12:15:33;;;;;;;4.00;1.20;;;21.40;41.40;;;;;;5064198;28;20675;-53
2023/10/22 12:17:59;;;;;;;2.77;1.30;;;21.60;41.10;;;;;;5064518;28;20184;-51
2023/10/22 12:20:24;;;;;;;2.13;1.20;;;21.80;40.90;;;;;;5061550;28;20438;-53
2023/10/22 12:22:50;;;;;;;3.17;1.10;;;21.90;40.60;;;;;;5067801;28;20230;-49
2023/10/22 12:25:16;;;;;;;2.43;1.43;;;21.90;40.60;;;;;;5061072;28;20824;-49
2023/10/22 12:27:41;;;;;;;3.43;1.40;;;21.90;40.90;;;;;;5064901;28;20211;-51
2023/10/22 12:30:08;;;;;;;1.67;1.20;;;21.90;39.70;;;;;;5068817;28;20207;-50
2023/10/22 12:32:33;;;;;;;4.07;1.60;;;21.80;39.00;;;;;;5069853;28;20666;-53
2023/10/22 12:35:02;;;;;;;3.47;1.50;;;21.80;39.10;;;;;;5068267;28;20457;-50
2023/10/22 12:37:27;;;;;;;3.30;1.63;;;21.80;39.00;;;;;;5069482;28;20271;-52
2023/10/22 12:39:53;;;;;;;3.27;1.40;;;22.00;39.40;;;;;;5069585;28;21004;-49
2023/10/22 12:42:18;;;;;;;3.10;1.70;;;22.10;38.90;;;;;;5069866;28;20199;-49
2023/10/22 12:44:45;;;;;;;2.57;1.80;;;22.20;39.30;;;;;;5069469;28;20253;-50
2023/10/22 12:47:14;;;;;;;3.13;1.90;;;22.20;38.70;;;;;;5069105;28;20203;-49
2023/10/22 12:49:41;;;;;;;3.67;1.60;;;22.10;38.50;;;;;;5069168;28;21015;-50